EGPI/ILY METAR and TAF weather

Enter ICAO airport designator
Station Type Date Time Source
EGPI METAR 2019/10/20 14:50 UTC NOAA

EGPI 201450Z 02012KT 9999 FEW 025 11/02 Q1019


Station Type Date Time Source
EGPI Decoded METAR 2019/10/20 14:50 UTC NOAA

Islay, United Kingdom (EGPI) 55-40-55N 006-15-24W
Oct 20, 2019 - 10:50 AM EDT / 2019.10.20 1450 UTC
Wind: from the NNE (020 degrees) at 14 MPH (12 KT):0
Visibility: greater than 7 mile(s):0
Sky conditions: mostly clear
Temperature: 51 F (11 C)
Dew Point: 35 F (2 C)
Relative Humidity: 53%
Pressure (altimeter): 30.09 in. Hg (1019 hPa)
ob: EGPI 201450Z 02012KT 9999 FEW 025 11/02 Q1019
cycle: 15

Station Type Date Time Source
EGPI TAF UTC NOAA

Error!

Example: see airport list